Adventure Cat — WBC3205 — position and weather

sailwx.info

Track history (hours):
 
Tides and Currents Weather Stations Pressure Air Temp Water Temp Dewpoint Dewpoint Depression Visibility Wind Speed Wind Dir Waves Ship Positions

Adventure Cat

Owner: ADVENTURE CAT INC, NAPA, CA. More information available from US FCC via Universal Licensing System and Coast Guard Vessel Documentation Center.

Last reported at 2017-Nov-15 01:00 UTC. Time now 2018-Feb-25 04:15 UTC.
Position N 37°49' W 122°25'.
Warning: this ship's position is months out of date.

Length 17 m; draft 2 m.

Type: Sailing vessel. MMSI: 367145450.

Date/timePositionNaut miles runAvg speedWind from/ knotsBaromVisibWave heightAir tempDewpointWater temp
2017-Nov-15 01:00N 37°49' W 122°25'3 5.4
2017-Nov-15 00:30N 37°51' W 122°27'1 0.2
2017-Nov-14 20:10N 37°52' W 122°26'1 4.2
2017-Nov-14 19:58N 37°51' W 122°27'  
2017-Nov-10 22:33N 37°49' W 122°25'0 4.7
2017-Nov-10 22:30N 37°49' W 122°25'3 5.9
2017-Nov-10 22:00N 37°49' W 122°28'2 3.2
2017-Nov-10 21:30N 37°49' W 122°26'  
2017-Nov-06 00:00N 37°49' W 122°25'2 3.6
2017-Nov-05 23:31N 37°50' W 122°27'1 2.9
2017-Nov-05 23:01N 37°49' W 122°28'2 3.3
2017-Nov-05 22:30N 37°51' W 122°28'2 5.0
2017-Nov-05 22:00N 37°52' W 122°25'2 3.6
2017-Nov-05 21:31N 37°50' W 122°25'2 0.1
2017-Nov-05 01:56N 37°49' W 122°25'2 4.6
2017-Nov-05 01:30N 37°49' W 122°27'1 2.2
2017-Nov-05 01:01N 37°49' W 122°28'  
Track history (hours):
 
Tides and Currents Weather Stations Pressure Air Temp Water Temp Dewpoint Dewpoint Depression Visibility Wind Speed Wind Dir Waves Ship Positions

Adventure Cat

Owner: ADVENTURE CAT INC, NAPA, CA. More information available from US FCC via Universal Licensing System and Coast Guard Vessel Documentation Center.

Last reported at 2017-Nov-15 01:00 UTC. Time now 2018-Feb-25 04:15 UTC.
Position N 37°49' W 122°25'.
Warning: this ship's position is months out of date.

Length 17 m; draft 2 m.

Type: Sailing vessel. MMSI: 367145450.

Date/timePositionNaut miles runAvg speedWind from/ knotsBaromVisibWave heightAir tempDewpointWater temp
2017-Nov-15 01:00N 37°49' W 122°25'3 5.4
2017-Nov-15 00:30N 37°51' W 122°27'1 0.2
2017-Nov-14 20:10N 37°52' W 122°26'1 4.2
2017-Nov-14 19:58N 37°51' W 122°27'  
2017-Nov-10 22:33N 37°49' W 122°25'0 4.7
2017-Nov-10 22:30N 37°49' W 122°25'3 5.9
2017-Nov-10 22:00N 37°49' W 122°28'2 3.2
2017-Nov-10 21:30N 37°49' W 122°26'  
2017-Nov-06 00:00N 37°49' W 122°25'2 3.6
2017-Nov-05 23:31N 37°50' W 122°27'1 2.9
2017-Nov-05 23:01N 37°49' W 122°28'2 3.3
2017-Nov-05 22:30N 37°51' W 122°28'2 5.0
2017-Nov-05 22:00N 37°52' W 122°25'2 3.6
2017-Nov-05 21:31N 37°50' W 122°25'2 0.1
2017-Nov-05 01:56N 37°49' W 122°25'2 4.6
2017-Nov-05 01:30N 37°49' W 122°27'1 2.2
2017-Nov-05 01:01N 37°49' W 122°28'  

Dump ship's entire track history